Airport View

Enter AWOS ICAO identifier for current METAR.

ex. KFNL

KLIC 120555Z AUTO 33004KT 10SM CLR M02/M08 A2999 RMK AO2 SLP149 T10221083 10033 21039 51014

12 Dec 2019 06:22

Frequency: 121.125

Phone: 719-775-0515

Other Area AWOS: KMNH - KFLY - KFTG - KCOS

TAF KCOS 120540Z 1206/1306 33012KT P6SM FEW200 FM121700 18010KT P6SM SCT120 BKN200 FM130200 34008KT P6SM SCT200